sensor_id;sensor_type;location;lat;lon;timestamp;P1;durP1;ratioP1;P2;durP2;ratioP2
56171;SDS011;42052;41.634;-0.946;2022-08-21T00:00:28;3.42;;;1.00;;
56171;SDS011;42052;41.634;-0.946;2022-08-21T00:03:01;1.98;;;1.00;;
56171;SDS011;42052;41.634;-0.946;2022-08-21T00:05:32;1.25;;;1.05;;
56171;SDS011;42052;41.634;-0.946;2022-08-21T00:08:01;3.35;;;1.20;;
56171;SDS011;42052;41.634;-0.946;2022-08-21T00:10:27;2.60;;;0.95;;
56171;SDS011;42052;41.634;-0.946;2022-08-21T00:12:53;4.45;;;0.95;;
56171;SDS011;42052;41.634;-0.946;2022-08-21T00:15:21;2.15;;;0.90;;
56171;SDS011;42052;41.634;-0.946;2022-08-21T00:17:51;1.85;;;1.17;;
56171;SDS011;42052;41.634;-0.946;2022-08-21T00:20:18;4.32;;;1.00;;
56171;SDS011;42052;41.634;-0.946;2022-08-21T00:22:44;1.80;;;1.00;;
56171;SDS011;42052;41.634;-0.946;2022-08-21T00:25:10;2.30;;;1.00;;
56171;SDS011;42052;41.634;-0.946;2022-08-21T00:27:38;2.47;;;1.10;;
56171;SDS011;42052;41.634;-0.946;2022-08-21T00:30:05;1.75;;;1.05;;
56171;SDS011;42052;41.634;-0.946;2022-08-21T00:32:32;3.90;;;1.13;;
56171;SDS011;42052;41.634;-0.946;2022-08-21T00:34:58;1.25;;;1.10;;
56171;SDS011;42052;41.634;-0.946;2022-08-21T00:37:24;2.50;;;1.10;;
56171;SDS011;42052;41.634;-0.946;2022-08-21T00:39:50;2.92;;;1.20;;
56171;SDS011;42052;41.634;-0.946;2022-08-21T00:42:16;2.17;;;1.20;;
56171;SDS011;42052;41.634;-0.946;2022-08-21T00:44:43;3.30;;;1.15;;
56171;SDS011;42052;41.634;-0.946;2022-08-21T00:47:10;3.22;;;1.20;;
56171;SDS011;42052;41.634;-0.946;2022-08-21T00:49:37;1.92;;;1.20;;
56171;SDS011;42052;41.634;-0.946;2022-08-21T00:52:04;3.17;;;1.17;;
56171;SDS011;42052;41.634;-0.946;2022-08-21T00:54:33;1.73;;;1.02;;
56171;SDS011;42052;41.634;-0.946;2022-08-21T00:57:03;2.50;;;1.20;;
56171;SDS011;42052;41.634;-0.946;2022-08-21T00:59:34;2.50;;;1.48;;
56171;SDS011;42052;41.634;-0.946;2022-08-21T01:02:02;3.00;;;1.10;;
56171;SDS011;42052;41.634;-0.946;2022-08-21T01:04:29;3.80;;;1.27;;
56171;SDS011;42052;41.634;-0.946;2022-08-21T01:06:55;2.75;;;1.30;;
56171;SDS011;42052;41.634;-0.946;2022-08-21T01:09:21;1.80;;;1.17;;
56171;SDS011;42052;41.634;-0.946;2022-08-21T01:11:47;2.88;;;1.05;;
56171;SDS011;42052;41.634;-0.946;2022-08-21T01:14:13;4.00;;;1.50;;
56171;SDS011;42052;41.634;-0.946;2022-08-21T01:16:41;1.60;;;1.10;;
56171;SDS011;42052;41.634;-0.946;2022-08-21T01:19:10;1.75;;;1.20;;
56171;SDS011;42052;41.634;-0.946;2022-08-21T01:21:36;3.17;;;1.40;;
56171;SDS011;42052;41.634;-0.946;2022-08-21T01:24:02;1.88;;;1.33;;
56171;SDS011;42052;41.634;-0.946;2022-08-21T01:26:30;2.67;;;1.38;;
56171;SDS011;42052;41.634;-0.946;2022-08-21T01:29:00;2.10;;;1.10;;
56171;SDS011;42052;41.634;-0.946;2022-08-21T01:31:47;1.48;;;1.17;;
56171;SDS011;42052;41.634;-0.946;2022-08-21T01:34:13;3.60;;;1.20;;
56171;SDS011;42052;41.634;-0.946;2022-08-21T01:36:41;3.90;;;1.27;;
56171;SDS011;42052;41.634;-0.946;2022-08-21T01:39:08;1.88;;;1.30;;
56171;SDS011;42052;41.634;-0.946;2022-08-21T01:41:35;3.85;;;1.40;;
56171;SDS011;42052;41.634;-0.946;2022-08-21T01:44:01;2.45;;;1.25;;
56171;SDS011;42052;41.634;-0.946;2022-08-21T01:46:27;3.63;;;1.30;;
56171;SDS011;42052;41.634;-0.946;2022-08-21T01:48:53;2.45;;;1.20;;
56171;SDS011;42052;41.634;-0.946;2022-08-21T01:51:19;3.70;;;1.30;;
56171;SDS011;42052;41.634;-0.946;2022-08-21T01:53:45;1.63;;;1.40;;
56171;SDS011;42052;41.634;-0.946;2022-08-21T01:56:12;1.95;;;1.33;;
56171;SDS011;42052;41.634;-0.946;2022-08-21T01:58:41;1.55;;;1.42;;
56171;SDS011;42052;41.634;-0.946;2022-08-21T02:01:09;3.13;;;1.30;;
56171;SDS011;42052;41.634;-0.946;2022-08-21T02:03:36;2.42;;;1.35;;
56171;SDS011;42052;41.634;-0.946;2022-08-21T02:06:03;3.28;;;1.30;;
56171;SDS011;42052;41.634;-0.946;2022-08-21T02:08:30;1.30;;;1.20;;
56171;SDS011;42052;41.634;-0.946;2022-08-21T02:10:56;1.67;;;1.40;;
56171;SDS011;42052;41.634;-0.946;2022-08-21T02:13:22;1.73;;;1.30;;
56171;SDS011;42052;41.634;-0.946;2022-08-21T02:15:48;1.63;;;1.20;;
56171;SDS011;42052;41.634;-0.946;2022-08-21T02:18:14;1.63;;;1.30;;
56171;SDS011;42052;41.634;-0.946;2022-08-21T02:20:41;2.25;;;1.40;;
56171;SDS011;42052;41.634;-0.946;2022-08-21T02:23:10;2.22;;;1.42;;
56171;SDS011;42052;41.634;-0.946;2022-08-21T02:25:36;1.60;;;1.40;;
56171;SDS011;42052;41.634;-0.946;2022-08-21T02:28:04;3.15;;;1.20;;
56171;SDS011;42052;41.634;-0.946;2022-08-21T02:30:34;2.58;;;1.40;;
56171;SDS011;42052;41.634;-0.946;2022-08-21T02:35:31;3.40;;;1.20;;
56171;SDS011;42052;41.634;-0.946;2022-08-21T02:37:59;1.83;;;1.30;;
56171;SDS011;42052;41.634;-0.946;2022-08-21T02:40:28;1.17;;;1.05;;
56171;SDS011;42052;41.634;-0.946;2022-08-21T02:42:57;3.42;;;1.58;;
56171;SDS011;42052;41.634;-0.946;2022-08-21T02:45:24;1.27;;;1.17;;
56171;SDS011;42052;41.634;-0.946;2022-08-21T02:47:50;1.63;;;1.20;;
56171;SDS011;42052;41.634;-0.946;2022-08-21T02:50:20;2.28;;;1.35;;
56171;SDS011;42052;41.634;-0.946;2022-08-21T02:52:52;2.08;;;1.30;;
56171;SDS011;42052;41.634;-0.946;2022-08-21T02:55:19;4.28;;;1.50;;
56171;SDS011;42052;41.634;-0.946;2022-08-21T02:57:46;3.75;;;1.48;;
56171;SDS011;42052;41.634;-0.946;2022-08-21T03:00:13;2.05;;;1.20;;
56171;SDS011;42052;41.634;-0.946;2022-08-21T03:02:40;1.83;;;0.90;;
56171;SDS011;42052;41.634;-0.946;2022-08-21T03:05:08;2.10;;;1.40;;
56171;SDS011;42052;41.634;-0.946;2022-08-21T03:07:35;2.50;;;1.20;;
56171;SDS011;42052;41.634;-0.946;2022-08-21T03:10:02;2.78;;;1.27;;
56171;SDS011;42052;41.634;-0.946;2022-08-21T03:12:29;3.67;;;1.40;;
56171;SDS011;42052;41.634;-0.946;2022-08-21T03:14:55;1.30;;;1.20;;
56171;SDS011;42052;41.634;-0.946;2022-08-21T03:17:22;1.60;;;1.40;;
56171;SDS011;42052;41.634;-0.946;2022-08-21T03:19:49;1.98;;;1.30;;
56171;SDS011;42052;41.634;-0.946;2022-08-21T03:22:15;3.25;;;1.30;;
56171;SDS011;42052;41.634;-0.946;2022-08-21T03:24:41;4.05;;;1.02;;
56171;SDS011;42052;41.634;-0.946;2022-08-21T03:27:07;2.28;;;1.40;;
56171;SDS011;42052;41.634;-0.946;2022-08-21T03:29:32;2.20;;;1.30;;
56171;SDS011;42052;41.634;-0.946;2022-08-21T03:31:58;1.60;;;1.20;;
56171;SDS011;42052;41.634;-0.946;2022-08-21T03:34:24;2.17;;;1.25;;
56171;SDS011;42052;41.634;-0.946;2022-08-21T03:36:50;3.25;;;1.10;;
56171;SDS011;42052;41.634;-0.946;2022-08-21T03:39:16;2.50;;;1.40;;
56171;SDS011;42052;41.634;-0.946;2022-08-21T03:41:42;2.17;;;1.20;;
56171;SDS011;42052;41.634;-0.946;2022-08-21T03:44:08;2.08;;;1.40;;
56171;SDS011;42052;41.634;-0.946;2022-08-21T03:46:34;1.60;;;1.30;;
56171;SDS011;42052;41.634;-0.946;2022-08-21T03:49:00;1.85;;;1.20;;
56171;SDS011;42052;41.634;-0.946;2022-08-21T03:51:25;2.70;;;1.40;;
56171;SDS011;42052;41.634;-0.946;2022-08-21T03:53:51;2.33;;;1.30;;
56171;SDS011;42052;41.634;-0.946;2022-08-21T03:56:17;2.28;;;1.27;;
56171;SDS011;42052;41.634;-0.946;2022-08-21T03:58:43;1.92;;;1.13;;
56171;SDS011;42052;41.634;-0.946;2022-08-21T04:01:09;2.65;;;1.35;;
56171;SDS011;42052;41.634;-0.946;2022-08-21T04:03:36;3.30;;;1.20;;
56171;SDS011;42052;41.634;-0.946;2022-08-21T04:06:03;2.60;;;1.15;;
56171;SDS011;42052;41.634;-0.946;2022-08-21T04:08:29;2.67;;;1.35;;
56171;SDS011;42052;41.634;-0.946;2022-08-21T04:10:55;2.95;;;1.30;;
56171;SDS011;42052;41.634;-0.946;2022-08-21T04:13:23;3.00;;;1.50;;
56171;SDS011;42052;41.634;-0.946;2022-08-21T04:15:50;2.03;;;1.42;;
56171;SDS011;42052;41.634;-0.946;2022-08-21T04:18:16;2.53;;;1.50;;
56171;SDS011;42052;41.634;-0.946;2022-08-21T04:20:43;1.67;;;1.17;;
56171;SDS011;42052;41.634;-0.946;2022-08-21T04:23:11;1.70;;;1.50;;
56171;SDS011;42052;41.634;-0.946;2022-08-21T04:25:37;2.03;;;1.45;;
56171;SDS011;42052;41.634;-0.946;2022-08-21T04:28:03;1.70;;;1.30;;
56171;SDS011;42052;41.634;-0.946;2022-08-21T04:30:29;3.47;;;1.27;;
56171;SDS011;42052;41.634;-0.946;2022-08-21T04:32:56;2.83;;;1.40;;
56171;SDS011;42052;41.634;-0.946;2022-08-21T04:35:23;3.15;;;1.60;;
56171;SDS011;42052;41.634;-0.946;2022-08-21T04:37:50;4.85;;;1.55;;
56171;SDS011;42052;41.634;-0.946;2022-08-21T04:40:17;2.45;;;1.48;;
56171;SDS011;42052;41.634;-0.946;2022-08-21T04:42:46;1.95;;;1.30;;
56171;SDS011;42052;41.634;-0.946;2022-08-21T04:48:16;2.42;;;1.35;;
56171;SDS011;42052;41.634;-0.946;2022-08-21T04:53:24;1.70;;;1.33;;
56171;SDS011;42052;41.634;-0.946;2022-08-21T04:58:30;3.90;;;1.80;;
56171;SDS011;42052;41.634;-0.946;2022-08-21T05:00:58;2.00;;;1.60;;
56171;SDS011;42052;41.634;-0.946;2022-08-21T05:03:26;4.00;;;1.60;;
56171;SDS011;42052;41.634;-0.946;2022-08-21T05:05:53;3.53;;;1.58;;
56171;SDS011;42052;41.634;-0.946;2022-08-21T05:08:21;2.53;;;1.58;;
56171;SDS011;42052;41.634;-0.946;2022-08-21T05:10:49;3.10;;;1.60;;
56171;SDS011;42052;41.634;-0.946;2022-08-21T05:13:15;2.50;;;1.60;;
56171;SDS011;42052;41.634;-0.946;2022-08-21T05:15:42;4.07;;;1.60;;
56171;SDS011;42052;41.634;-0.946;2022-08-21T05:18:08;3.90;;;1.80;;
56171;SDS011;42052;41.634;-0.946;2022-08-21T05:20:34;1.83;;;1.50;;
56171;SDS011;42052;41.634;-0.946;2022-08-21T05:23:00;4.18;;;1.80;;
56171;SDS011;42052;41.634;-0.946;2022-08-21T05:25:32;3.72;;;1.58;;
56171;SDS011;42052;41.634;-0.946;2022-08-21T05:27:58;2.00;;;1.40;;
56171;SDS011;42052;41.634;-0.946;2022-08-21T05:30:24;2.10;;;1.50;;
56171;SDS011;42052;41.634;-0.946;2022-08-21T05:32:55;2.03;;;1.60;;
56171;SDS011;42052;41.634;-0.946;2022-08-21T05:35:22;3.00;;;1.80;;
56171;SDS011;42052;41.634;-0.946;2022-08-21T05:37:48;3.15;;;1.88;;
56171;SDS011;42052;41.634;-0.946;2022-08-21T05:40:13;2.75;;;1.70;;
56171;SDS011;42052;41.634;-0.946;2022-08-21T05:42:39;2.67;;;1.50;;
56171;SDS011;42052;41.634;-0.946;2022-08-21T05:45:05;5.20;;;1.90;;
56171;SDS011;42052;41.634;-0.946;2022-08-21T05:47:32;2.53;;;1.70;;
56171;SDS011;42052;41.634;-0.946;2022-08-21T05:49:57;4.45;;;1.80;;
56171;SDS011;42052;41.634;-0.946;2022-08-21T05:52:23;3.25;;;1.80;;
56171;SDS011;42052;41.634;-0.946;2022-08-21T05:54:49;2.78;;;1.80;;
56171;SDS011;42052;41.634;-0.946;2022-08-21T05:57:15;3.63;;;2.00;;
56171;SDS011;42052;41.634;-0.946;2022-08-21T05:59:41;3.40;;;2.08;;
56171;SDS011;42052;41.634;-0.946;2022-08-21T06:02:08;2.78;;;1.90;;
56171;SDS011;42052;41.634;-0.946;2022-08-21T06:04:37;2.75;;;1.83;;
56171;SDS011;42052;41.634;-0.946;2022-08-21T06:07:04;3.05;;;2.10;;
56171;SDS011;42052;41.634;-0.946;2022-08-21T06:09:30;6.07;;;2.03;;
56171;SDS011;42052;41.634;-0.946;2022-08-21T06:11:57;2.28;;;1.80;;
56171;SDS011;42052;41.634;-0.946;2022-08-21T06:14:23;2.70;;;2.03;;
56171;SDS011;42052;41.634;-0.946;2022-08-21T06:16:48;2.50;;;1.90;;
56171;SDS011;42052;41.634;-0.946;2022-08-21T06:19:14;5.43;;;1.90;;
56171;SDS011;42052;41.634;-0.946;2022-08-21T06:21:40;4.18;;;1.92;;
56171;SDS011;42052;41.634;-0.946;2022-08-21T06:24:06;2.17;;;1.95;;
56171;SDS011;42052;41.634;-0.946;2022-08-21T06:26:32;2.13;;;1.80;;
56171;SDS011;42052;41.634;-0.946;2022-08-21T06:28:58;3.47;;;1.80;;
56171;SDS011;42052;41.634;-0.946;2022-08-21T06:31:25;5.20;;;2.03;;
56171;SDS011;42052;41.634;-0.946;2022-08-21T06:33:52;3.65;;;2.17;;
56171;SDS011;42052;41.634;-0.946;2022-08-21T06:36:19;4.88;;;2.10;;
56171;SDS011;42052;41.634;-0.946;2022-08-21T06:38:48;3.53;;;1.80;;
56171;SDS011;42052;41.634;-0.946;2022-08-21T06:41:14;3.53;;;2.20;;
56171;SDS011;42052;41.634;-0.946;2022-08-21T06:43:39;2.33;;;1.83;;
56171;SDS011;42052;41.634;-0.946;2022-08-21T06:46:06;3.38;;;1.83;;
56171;SDS011;42052;41.634;-0.946;2022-08-21T06:48:32;2.67;;;2.17;;
56171;SDS011;42052;41.634;-0.946;2022-08-21T06:50:59;4.72;;;2.00;;
56171;SDS011;42052;41.634;-0.946;2022-08-21T06:53:25;4.63;;;2.08;;
56171;SDS011;42052;41.634;-0.946;2022-08-21T06:55:51;5.32;;;2.10;;
56171;SDS011;42052;41.634;-0.946;2022-08-21T06:58:17;3.63;;;2.28;;
56171;SDS011;42052;41.634;-0.946;2022-08-21T07:00:46;3.35;;;2.10;;
56171;SDS011;42052;41.634;-0.946;2022-08-21T07:06:09;3.38;;;2.10;;
56171;SDS011;42052;41.634;-0.946;2022-08-21T07:08:36;2.92;;;2.05;;
56171;SDS011;42052;41.634;-0.946;2022-08-21T07:11:03;2.85;;;2.15;;
56171;SDS011;42052;41.634;-0.946;2022-08-21T07:13:36;2.80;;;2.10;;
56171;SDS011;42052;41.634;-0.946;2022-08-21T07:16:02;2.85;;;2.00;;
56171;SDS011;42052;41.634;-0.946;2022-08-21T07:18:28;3.50;;;2.10;;
56171;SDS011;42052;41.634;-0.946;2022-08-21T07:20:54;7.75;;;2.17;;
56171;SDS011;42052;41.634;-0.946;2022-08-21T07:25:53;7.32;;;2.17;;
56171;SDS011;42052;41.634;-0.946;2022-08-21T07:28:20;4.90;;;1.90;;
56171;SDS011;42052;41.634;-0.946;2022-08-21T07:30:46;6.50;;;2.15;;
56171;SDS011;42052;41.634;-0.946;2022-08-21T07:33:15;4.60;;;2.08;;
56171;SDS011;42052;41.634;-0.946;2022-08-21T07:35:41;3.67;;;2.08;;
56171;SDS011;42052;41.634;-0.946;2022-08-21T07:38:07;4.65;;;2.25;;
56171;SDS011;42052;41.634;-0.946;2022-08-21T07:40:33;4.93;;;2.15;;
56171;SDS011;42052;41.634;-0.946;2022-08-21T07:42:59;5.47;;;1.95;;
56171;SDS011;42052;41.634;-0.946;2022-08-21T07:45:24;2.80;;;1.98;;
56171;SDS011;42052;41.634;-0.946;2022-08-21T07:47:51;4.63;;;2.00;;
56171;SDS011;42052;41.634;-0.946;2022-08-21T07:50:17;4.07;;;1.98;;
56171;SDS011;42052;41.634;-0.946;2022-08-21T07:52:44;5.18;;;2.35;;
56171;SDS011;42052;41.634;-0.946;2022-08-21T07:55:13;4.90;;;2.15;;
56171;SDS011;42052;41.634;-0.946;2022-08-21T07:57:40;3.00;;;2.25;;
56171;SDS011;42052;41.634;-0.946;2022-08-21T08:00:08;4.28;;;2.30;;
56171;SDS011;42052;41.634;-0.946;2022-08-21T08:02:36;4.75;;;2.10;;
56171;SDS011;42052;41.634;-0.946;2022-08-21T08:05:06;3.45;;;2.17;;
56171;SDS011;42052;41.634;-0.946;2022-08-21T08:07:34;6.00;;;2.25;;
56171;SDS011;42052;41.634;-0.946;2022-08-21T08:10:01;5.47;;;2.50;;
56171;SDS011;42052;41.634;-0.946;2022-08-21T08:12:27;2.58;;;2.20;;
56171;SDS011;42052;41.634;-0.946;2022-08-21T08:15:00;3.65;;;2.25;;
56171;SDS011;42052;41.634;-0.946;2022-08-21T08:17:27;5.78;;;2.38;;
56171;SDS011;42052;41.634;-0.946;2022-08-21T08:19:53;5.38;;;2.35;;
56171;SDS011;42052;41.634;-0.946;2022-08-21T08:22:21;3.75;;;2.10;;
56171;SDS011;42052;41.634;-0.946;2022-08-21T08:24:51;4.75;;;2.35;;
56171;SDS011;42052;41.634;-0.946;2022-08-21T08:27:17;4.10;;;2.13;;
56171;SDS011;42052;41.634;-0.946;2022-08-21T08:29:44;4.65;;;2.08;;
56171;SDS011;42052;41.634;-0.946;2022-08-21T08:32:11;4.22;;;2.10;;
56171;SDS011;42052;41.634;-0.946;2022-08-21T08:34:37;2.42;;;2.00;;
56171;SDS011;42052;41.634;-0.946;2022-08-21T08:37:04;4.18;;;2.10;;
56171;SDS011;42052;41.634;-0.946;2022-08-21T08:39:32;6.57;;;2.30;;
56171;SDS011;42052;41.634;-0.946;2022-08-21T08:42:14;2.85;;;2.00;;
56171;SDS011;42052;41.634;-0.946;2022-08-21T08:44:44;4.93;;;2.30;;
56171;SDS011;42052;41.634;-0.946;2022-08-21T08:47:13;6.72;;;2.20;;
56171;SDS011;42052;41.634;-0.946;2022-08-21T08:50:05;2.38;;;2.00;;
56171;SDS011;42052;41.634;-0.946;2022-08-21T08:52:33;4.82;;;2.00;;
56171;SDS011;42052;41.634;-0.946;2022-08-21T08:55:06;2.83;;;1.92;;
56171;SDS011;42052;41.634;-0.946;2022-08-21T08:57:33;2.47;;;2.03;;
56171;SDS011;42052;41.634;-0.946;2022-08-21T09:00:03;3.75;;;1.95;;
56171;SDS011;42052;41.634;-0.946;2022-08-21T09:02:31;2.15;;;1.90;;
56171;SDS011;42052;41.634;-0.946;2022-08-21T09:04:58;3.35;;;2.00;;
56171;SDS011;42052;41.634;-0.946;2022-08-21T09:18:38;3.58;;;1.95;;
56171;SDS011;42052;41.634;-0.946;2022-08-21T09:24:32;2.10;;;1.90;;
56171;SDS011;42052;41.634;-0.946;2022-08-21T09:27:12;3.00;;;1.88;;
56171;SDS011;42052;41.634;-0.946;2022-08-21T09:29:41;6.38;;;1.73;;
56171;SDS011;42052;41.634;-0.946;2022-08-21T09:37:57;33.88;;;6.63;;
56171;SDS011;42052;41.634;-0.946;2022-08-21T09:42:58;21.25;;;4.93;;
56171;SDS011;42052;41.634;-0.946;2022-08-21T09:45:26;27.08;;;7.20;;
56171;SDS011;42052;41.634;-0.946;2022-08-21T09:47:52;59.38;;;16.17;;
56171;SDS011;42052;41.634;-0.946;2022-08-21T09:50:26;74.82;;;19.13;;
56171;SDS011;42052;41.634;-0.946;2022-08-21T09:52:57;74.00;;;18.83;;
56171;SDS011;42052;41.634;-0.946;2022-08-21T09:55:33;66.70;;;16.38;;
56171;SDS011;42052;41.634;-0.946;2022-08-21T09:58:29;54.40;;;16.58;;
56171;SDS011;42052;41.634;-0.946;2022-08-21T10:00:58;35.70;;;9.63;;
56171;SDS011;42052;41.634;-0.946;2022-08-21T10:03:25;42.90;;;12.93;;
56171;SDS011;42052;41.634;-0.946;2022-08-21T10:05:54;37.03;;;10.93;;
56171;SDS011;42052;41.634;-0.946;2022-08-21T10:08:23;27.17;;;8.60;;
56171;SDS011;42052;41.634;-0.946;2022-08-21T10:10:53;25.73;;;7.70;;
56171;SDS011;42052;41.634;-0.946;2022-08-21T10:13:33;18.77;;;5.93;;
56171;SDS011;42052;41.634;-0.946;2022-08-21T10:18:54;10.32;;;4.30;;
56171;SDS011;42052;41.634;-0.946;2022-08-21T10:34:38;6.13;;;2.83;;
56171;SDS011;42052;41.634;-0.946;2022-08-21T10:48:08;4.10;;;2.03;;
56171;SDS011;42052;41.634;-0.946;2022-08-21T10:50:59;3.65;;;1.80;;
56171;SDS011;42052;41.634;-0.946;2022-08-21T10:56:42;3.72;;;1.75;;
56171;SDS011;42052;41.634;-0.946;2022-08-21T11:02:17;3.28;;;1.75;;
56171;SDS011;42052;41.634;-0.946;2022-08-21T11:04:56;3.22;;;1.85;;
56171;SDS011;42052;41.634;-0.946;2022-08-21T11:10:00;1.88;;;1.58;;
56171;SDS011;42052;41.634;-0.946;2022-08-21T11:12:42;2.72;;;1.50;;
56171;SDS011;42052;41.634;-0.946;2022-08-21T11:18:04;2.47;;;1.45;;
56171;SDS011;42052;41.634;-0.946;2022-08-21T11:20:55;2.17;;;1.40;;
56171;SDS011;42052;41.634;-0.946;2022-08-21T11:23:47;1.95;;;1.27;;
56171;SDS011;42052;41.634;-0.946;2022-08-21T11:26:29;1.88;;;1.25;;
56171;SDS011;42052;41.634;-0.946;2022-08-21T11:29:27;1.17;;;1.05;;
56171;SDS011;42052;41.634;-0.946;2022-08-21T11:45:32;4.63;;;3.05;;
56171;SDS011;42052;41.634;-0.946;2022-08-21T11:51:13;7.75;;;4.68;;
56171;SDS011;42052;41.634;-0.946;2022-08-21T11:56:51;8.20;;;4.50;;
56171;SDS011;42052;41.634;-0.946;2022-08-21T11:59:22;7.70;;;4.47;;
56171;SDS011;42052;41.634;-0.946;2022-08-21T12:01:53;7.60;;;4.20;;
56171;SDS011;42052;41.634;-0.946;2022-08-21T12:04:30;7.03;;;4.32;;
56171;SDS011;42052;41.634;-0.946;2022-08-21T12:07:17;6.38;;;3.92;;
56171;SDS011;42052;41.634;-0.946;2022-08-21T12:09:55;5.78;;;3.75;;
56171;SDS011;42052;41.634;-0.946;2022-08-21T12:23:02;6.88;;;4.07;;
56171;SDS011;42052;41.634;-0.946;2022-08-21T12:28:26;6.55;;;4.05;;
56171;SDS011;42052;41.634;-0.946;2022-08-21T12:30:53;6.05;;;3.45;;
56171;SDS011;42052;41.634;-0.946;2022-08-21T12:33:24;7.07;;;3.75;;
56171;SDS011;42052;41.634;-0.946;2022-08-21T12:36:12;6.13;;;3.55;;
56171;SDS011;42052;41.634;-0.946;2022-08-21T12:38:51;5.85;;;3.20;;
56171;SDS011;42052;41.634;-0.946;2022-08-21T12:41:24;5.88;;;3.65;;
56171;SDS011;42052;41.634;-0.946;2022-08-21T12:43:56;5.85;;;3.08;;
56171;SDS011;42052;41.634;-0.946;2022-08-21T12:49:26;4.70;;;3.15;;
56171;SDS011;42052;41.634;-0.946;2022-08-21T12:54:45;5.88;;;3.33;;
56171;SDS011;42052;41.634;-0.946;2022-08-21T12:57:21;5.80;;;3.30;;
56171;SDS011;42052;41.634;-0.946;2022-08-21T12:59:56;5.75;;;3.22;;
56171;SDS011;42052;41.634;-0.946;2022-08-21T13:02:35;5.68;;;3.13;;
56171;SDS011;42052;41.634;-0.946;2022-08-21T13:05:05;5.03;;;3.08;;
56171;SDS011;42052;41.634;-0.946;2022-08-21T13:07:35;6.13;;;3.20;;
56171;SDS011;42052;41.634;-0.946;2022-08-21T13:10:07;5.80;;;3.30;;
56171;SDS011;42052;41.634;-0.946;2022-08-21T13:12:43;5.47;;;3.40;;
56171;SDS011;42052;41.634;-0.946;2022-08-21T13:15:10;4.57;;;2.85;;
56171;SDS011;42052;41.634;-0.946;2022-08-21T13:17:38;6.35;;;3.00;;
56171;SDS011;42052;41.634;-0.946;2022-08-21T13:20:21;6.75;;;3.22;;
56171;SDS011;42052;41.634;-0.946;2022-08-21T13:22:49;5.82;;;2.90;;
56171;SDS011;42052;41.634;-0.946;2022-08-21T13:25:17;6.05;;;2.83;;
56171;SDS011;42052;41.634;-0.946;2022-08-21T13:27:45;8.35;;;3.00;;
56171;SDS011;42052;41.634;-0.946;2022-08-21T13:30:24;5.80;;;3.05;;
56171;SDS011;42052;41.634;-0.946;2022-08-21T13:32:51;4.65;;;2.78;;
56171;SDS011;42052;41.634;-0.946;2022-08-21T13:35:28;4.95;;;3.30;;
56171;SDS011;42052;41.634;-0.946;2022-08-21T13:38:11;4.15;;;2.70;;
56171;SDS011;42052;41.634;-0.946;2022-08-21T13:40:42;3.95;;;2.40;;
56171;SDS011;42052;41.634;-0.946;2022-08-21T13:43:14;3.83;;;2.10;;
56171;SDS011;42052;41.634;-0.946;2022-08-21T13:45:53;5.53;;;2.20;;
56171;SDS011;42052;41.634;-0.946;2022-08-21T13:48:21;5.95;;;2.50;;
56171;SDS011;42052;41.634;-0.946;2022-08-21T13:50:50;3.15;;;2.00;;
56171;SDS011;42052;41.634;-0.946;2022-08-21T13:53:21;12.40;;;3.47;;
56171;SDS011;42052;41.634;-0.946;2022-08-21T13:55:53;16.98;;;4.47;;
56171;SDS011;42052;41.634;-0.946;2022-08-21T13:58:52;15.05;;;4.10;;
56171;SDS011;42052;41.634;-0.946;2022-08-21T14:01:22;10.88;;;3.50;;
56171;SDS011;42052;41.634;-0.946;2022-08-21T14:03:57;13.68;;;3.58;;
56171;SDS011;42052;41.634;-0.946;2022-08-21T14:06:32;11.00;;;3.72;;
56171;SDS011;42052;41.634;-0.946;2022-08-21T14:11:33;11.98;;;3.22;;
56171;SDS011;42052;41.634;-0.946;2022-08-21T14:14:02;7.70;;;3.15;;
56171;SDS011;42052;41.634;-0.946;2022-08-21T14:19:15;7.50;;;2.50;;
56171;SDS011;42052;41.634;-0.946;2022-08-21T14:21:50;5.65;;;2.42;;
56171;SDS011;42052;41.634;-0.946;2022-08-21T14:24:38;5.60;;;2.50;;
56171;SDS011;42052;41.634;-0.946;2022-08-21T14:27:05;8.07;;;4.00;;
56171;SDS011;42052;41.634;-0.946;2022-08-21T14:29:36;10.32;;;4.88;;
56171;SDS011;42052;41.634;-0.946;2022-08-21T14:34:52;8.52;;;4.40;;
56171;SDS011;42052;41.634;-0.946;2022-08-21T14:37:18;7.78;;;4.15;;
56171;SDS011;42052;41.634;-0.946;2022-08-21T14:39:44;8.60;;;4.18;;
56171;SDS011;42052;41.634;-0.946;2022-08-21T14:42:10;8.32;;;4.00;;
56171;SDS011;42052;41.634;-0.946;2022-08-21T14:44:38;7.40;;;4.05;;
56171;SDS011;42052;41.634;-0.946;2022-08-21T14:47:03;7.18;;;3.97;;
56171;SDS011;42052;41.634;-0.946;2022-08-21T14:49:29;7.20;;;3.90;;
56171;SDS011;42052;41.634;-0.946;2022-08-21T14:51:56;6.93;;;4.20;;
56171;SDS011;42052;41.634;-0.946;2022-08-21T14:54:29;6.28;;;3.55;;
56171;SDS011;42052;41.634;-0.946;2022-08-21T14:56:57;7.90;;;4.00;;
56171;SDS011;42052;41.634;-0.946;2022-08-21T14:59:31;6.53;;;3.92;;
56171;SDS011;42052;41.634;-0.946;2022-08-21T15:01:58;6.63;;;3.95;;
56171;SDS011;42052;41.634;-0.946;2022-08-21T15:04:23;7.13;;;4.00;;
56171;SDS011;42052;41.634;-0.946;2022-08-21T15:06:50;7.03;;;4.10;;
56171;SDS011;42052;41.634;-0.946;2022-08-21T15:09:15;5.90;;;3.70;;
56171;SDS011;42052;41.634;-0.946;2022-08-21T15:11:41;7.60;;;4.28;;
56171;SDS011;42052;41.634;-0.946;2022-08-21T15:14:09;6.68;;;3.67;;
56171;SDS011;42052;41.634;-0.946;2022-08-21T15:16:40;7.53;;;4.18;;
56171;SDS011;42052;41.634;-0.946;2022-08-21T15:19:06;6.38;;;3.83;;
56171;SDS011;42052;41.634;-0.946;2022-08-21T15:21:32;7.22;;;3.70;;
56171;SDS011;42052;41.634;-0.946;2022-08-21T15:23:58;5.05;;;3.70;;
56171;SDS011;42052;41.634;-0.946;2022-08-21T15:26:24;7.18;;;3.80;;
56171;SDS011;42052;41.634;-0.946;2022-08-21T15:28:51;5.40;;;3.20;;
56171;SDS011;42052;41.634;-0.946;2022-08-21T15:31:17;7.18;;;3.60;;
56171;SDS011;42052;41.634;-0.946;2022-08-21T15:33:42;4.95;;;3.40;;
56171;SDS011;42052;41.634;-0.946;2022-08-21T15:36:08;7.80;;;3.65;;
56171;SDS011;42052;41.634;-0.946;2022-08-21T15:38:34;5.05;;;3.28;;
56171;SDS011;42052;41.634;-0.946;2022-08-21T15:41:01;6.13;;;3.15;;
56171;SDS011;42052;41.634;-0.946;2022-08-21T15:43:29;5.43;;;3.47;;
56171;SDS011;42052;41.634;-0.946;2022-08-21T15:45:58;5.53;;;3.65;;
56171;SDS011;42052;41.634;-0.946;2022-08-21T15:48:25;6.10;;;3.45;;
56171;SDS011;42052;41.634;-0.946;2022-08-21T15:50:51;5.03;;;3.25;;
56171;SDS011;42052;41.634;-0.946;2022-08-21T15:53:17;5.47;;;3.30;;
56171;SDS011;42052;41.634;-0.946;2022-08-21T15:55:43;5.57;;;3.50;;
56171;SDS011;42052;41.634;-0.946;2022-08-21T15:58:12;4.35;;;3.13;;
56171;SDS011;42052;41.634;-0.946;2022-08-21T16:00:40;4.82;;;3.22;;
56171;SDS011;42052;41.634;-0.946;2022-08-21T16:03:08;6.30;;;3.42;;
56171;SDS011;42052;41.634;-0.946;2022-08-21T16:05:39;5.45;;;2.78;;
56171;SDS011;42052;41.634;-0.946;2022-08-21T16:08:05;6.40;;;3.30;;
56171;SDS011;42052;41.634;-0.946;2022-08-21T16:10:31;4.80;;;2.95;;
56171;SDS011;42052;41.634;-0.946;2022-08-21T16:13:02;6.60;;;2.95;;
56171;SDS011;42052;41.634;-0.946;2022-08-21T16:15:30;5.55;;;3.33;;
56171;SDS011;42052;41.634;-0.946;2022-08-21T16:17:56;4.55;;;2.88;;
56171;SDS011;42052;41.634;-0.946;2022-08-21T16:20:23;5.47;;;3.17;;
56171;SDS011;42052;41.634;-0.946;2022-08-21T16:22:52;4.78;;;2.88;;
56171;SDS011;42052;41.634;-0.946;2022-08-21T16:25:19;4.70;;;3.00;;
56171;SDS011;42052;41.634;-0.946;2022-08-21T16:27:46;5.25;;;2.72;;
56171;SDS011;42052;41.634;-0.946;2022-08-21T16:30:16;4.45;;;3.00;;
56171;SDS011;42052;41.634;-0.946;2022-08-21T16:32:43;6.28;;;2.78;;
56171;SDS011;42052;41.634;-0.946;2022-08-21T16:35:11;4.60;;;2.83;;
56171;SDS011;42052;41.634;-0.946;2022-08-21T16:37:39;3.83;;;2.53;;
56171;SDS011;42052;41.634;-0.946;2022-08-21T16:40:05;3.45;;;2.58;;
56171;SDS011;42052;41.634;-0.946;2022-08-21T16:42:34;5.10;;;3.03;;
56171;SDS011;42052;41.634;-0.946;2022-08-21T16:45:02;4.25;;;2.58;;
56171;SDS011;42052;41.634;-0.946;2022-08-21T16:47:32;3.70;;;2.50;;